createdAt,value
2023-03-02T00:03:18.326Z,17.50
2023-03-02T00:08:20.271Z,15.23
2023-03-02T00:13:22.543Z,16.35
2023-03-02T00:18:24.685Z,16.42
2023-03-02T00:23:26.530Z,16.02
2023-03-02T00:28:29.677Z,15.00
2023-03-02T00:33:32.877Z,12.93
2023-03-02T00:38:34.651Z,14.13
2023-03-02T00:43:36.457Z,15.23
2023-03-02T00:48:38.442Z,14.07
2023-03-02T00:53:41.327Z,14.75
2023-03-02T00:58:43.132Z,14.40
2023-03-02T01:03:45.361Z,14.73
2023-03-02T01:08:48.361Z,16.02
2023-03-02T01:13:50.637Z,14.82
2023-03-02T01:18:52.392Z,14.90
2023-03-02T01:23:54.245Z,14.93
2023-03-02T01:28:56.473Z,13.90
2023-03-02T01:33:58.426Z,14.00
2023-03-02T01:39:00.832Z,13.68
2023-03-02T01:44:02.591Z,13.48
2023-03-02T01:49:11.596Z,15.95
2023-03-02T01:54:27.698Z,16.55
2023-03-02T01:59:35.873Z,14.88
2023-03-02T02:04:42.190Z,14.10
2023-03-02T02:09:48.083Z,14.07
2023-03-02T02:14:50.500Z,14.32
2023-03-02T02:20:24.100Z,15.13
2023-03-02T02:25:55.600Z,14.35
2023-03-02T02:31:22.485Z,14.40
2023-03-02T02:36:33.689Z,14.73
2023-03-02T02:41:41.111Z,15.55
2023-03-02T02:46:44.849Z,15.82
2023-03-02T02:51:46.653Z,15.45
2023-03-02T02:56:50.685Z,15.80
2023-03-02T03:01:53.003Z,15.50
2023-03-02T03:07:01.251Z,15.93
2023-03-02T03:12:21.225Z,17.15
2023-03-02T03:17:23.097Z,17.88
2023-03-02T03:22:30.469Z,18.05
2023-03-02T03:27:32.657Z,17.38
2023-03-02T03:32:36.104Z,16.33
2023-03-02T03:37:42.098Z,16.85
2023-03-02T03:42:44.875Z,17.48
2023-03-02T03:47:47.472Z,19.42
2023-03-02T03:52:49.585Z,17.38
2023-03-02T03:57:56.779Z,17.27
2023-03-02T04:02:59.343Z,17.50
2023-03-02T04:08:03.484Z,17.30
2023-03-02T04:13:06.947Z,18.75
2023-03-02T04:18:09.823Z,18.67
2023-03-02T04:23:12.842Z,21.70
2023-03-02T04:28:17.655Z,21.42
2023-03-02T04:33:20.545Z,19.70
2023-03-02T04:38:23.253Z,20.75
2023-03-02T04:43:26.142Z,21.23
2023-03-02T04:48:28.046Z,19.42
2023-03-02T04:53:29.824Z,19.10
2023-03-02T04:58:31.608Z,18.20
2023-03-02T05:03:33.364Z,18.48
2023-03-02T05:08:35.174Z,17.50
2023-03-02T05:13:36.918Z,18.17
2023-03-02T05:18:38.677Z,16.02
2023-03-02T05:23:41.644Z,17.15
2023-03-02T05:28:44.048Z,18.73
2023-03-02T05:33:46.254Z,17.80
2023-03-02T05:38:48.072Z,16.90
2023-03-02T05:43:50.104Z,18.45
2023-03-02T05:48:51.864Z,17.90
2023-03-02T05:53:53.645Z,17.67
2023-03-02T05:58:55.452Z,18.30
2023-03-02T06:03:57.229Z,20.05
2023-03-02T06:08:59.024Z,18.08
2023-03-02T06:14:00.809Z,22.25
2023-03-02T06:19:03.144Z,20.38
2023-03-02T06:24:05.148Z,21.45
2023-03-02T06:29:07.758Z,18.95
2023-03-02T06:34:09.565Z,19.90
2023-03-02T06:39:15.839Z,20.15
2023-03-02T06:44:18.001Z,19.35
2023-03-02T06:49:19.762Z,20.88
2023-03-02T06:54:23.793Z,20.08
2023-03-02T06:59:26.034Z,23.20
2023-03-02T07:04:30.588Z,23.45
2023-03-02T07:09:35.500Z,23.13
2023-03-02T07:14:37.337Z,24.23
2023-03-02T07:19:40.881Z,25.80
2023-03-02T07:24:44.907Z,23.15
2023-03-02T07:29:46.778Z,29.15
2023-03-02T07:34:48.542Z,22.38
2023-03-02T07:39:50.437Z,23.15
2023-03-02T07:44:54.430Z,22.20
2023-03-02T07:49:56.454Z,24.10
2023-03-02T07:54:58.225Z,21.77
2023-03-02T08:00:00.090Z,22.33
2023-03-02T08:05:01.872Z,21.45
2023-03-02T08:10:04.801Z,20.42
2023-03-02T08:15:07.096Z,21.88
2023-03-02T08:20:09.787Z,22.27
2023-03-02T08:25:19.534Z,21.13
2023-03-02T08:30:21.346Z,21.63
2023-03-02T08:35:23.162Z,21.98
2023-03-02T08:40:24.938Z,22.42
2023-03-02T08:45:26.970Z,21.35
2023-03-02T08:50:28.850Z,20.77
2023-03-02T08:55:30.639Z,20.70
2023-03-02T09:06:07.909Z,20.17
2023-03-02T09:11:09.774Z,20.50
2023-03-02T09:16:12.549Z,19.98
2023-03-02T09:21:14.580Z,20.80
2023-03-02T09:26:16.378Z,20.23
2023-03-02T09:31:18.148Z,19.70
2023-03-02T09:36:22.649Z,19.75
2023-03-02T09:41:42.606Z,20.35
2023-03-02T09:46:49.776Z,20.67
2023-03-02T09:52:06.519Z,18.83
2023-03-02T09:57:29.591Z,19.80
2023-03-02T10:02:49.475Z,18.00
2023-03-02T10:07:51.750Z,18.42
2023-03-02T10:13:17.740Z,17.23
2023-03-02T10:18:38.095Z,17.90
2023-03-02T10:23:51.458Z,16.33
2023-03-02T10:29:05.752Z,17.95
2023-03-02T10:34:10.897Z,16.80
2023-03-02T10:39:15.654Z,15.15
2023-03-02T10:44:27.683Z,16.13
2023-03-02T10:49:31.433Z,15.38
2023-03-02T10:54:34.816Z,14.73
2023-03-02T10:59:46.273Z,13.73
2023-03-02T11:04:48.132Z,12.10
2023-03-02T11:10:02.046Z,13.00
2023-03-02T11:15:45.144Z,12.40
2023-03-02T11:20:51.790Z,11.15
2023-03-02T11:26:01.921Z,11.45
2023-03-02T11:31:10.391Z,10.23
2023-03-02T11:36:18.935Z,10.68
2023-03-02T11:41:30.127Z,10.38
2023-03-02T11:46:33.634Z,9.48
2023-03-02T11:51:44.482Z,9.88
2023-03-02T11:56:49.107Z,8.88
2023-03-02T12:01:54.708Z,9.70
2023-03-02T12:06:56.873Z,10.00
2023-03-02T12:12:26.667Z,9.35
2023-03-02T12:17:30.062Z,10.52
2023-03-02T12:22:32.315Z,9.95
2023-03-02T12:27:59.398Z,9.32
2023-03-02T12:33:14.484Z,9.38
2023-03-02T12:38:31.405Z,9.05
2023-03-02T12:48:56.953Z,9.93
2023-03-02T12:54:18.079Z,9.15
2023-03-02T12:59:25.686Z,9.32
2023-03-02T13:04:27.539Z,8.45
2023-03-02T13:09:29.529Z,7.95
2023-03-02T13:14:31.339Z,8.23
2023-03-02T13:19:33.887Z,7.50
2023-03-02T13:24:45.661Z,7.88
2023-03-02T13:29:48.254Z,8.15
2023-03-02T13:34:56.079Z,7.75
2023-03-02T13:40:00.399Z,8.45
2023-03-02T13:45:20.783Z,10.85
2023-03-02T13:50:28.696Z,11.55
2023-03-02T13:55:30.507Z,12.63
2023-03-02T14:00:35.112Z,12.68
2023-03-02T14:05:36.954Z,13.65
2023-03-02T14:10:39.161Z,12.88
2023-03-02T14:15:46.449Z,13.30
2023-03-02T14:20:48.313Z,12.82
2023-03-02T14:25:51.272Z,12.07
2023-03-02T14:30:55.587Z,12.80
2023-03-02T14:35:58.735Z,13.00
2023-03-02T14:41:00.643Z,12.43
2023-03-02T14:46:02.485Z,12.63
2023-03-02T14:51:04.789Z,13.10
2023-03-02T14:56:08.091Z,13.40
2023-03-02T15:01:35.379Z,13.40
2023-03-02T15:06:42.552Z,13.70
2023-03-02T15:11:44.521Z,13.57
2023-03-02T15:16:46.321Z,13.65
2023-03-02T15:21:48.327Z,12.07
2023-03-02T15:26:57.324Z,12.52
2023-03-02T15:31:59.210Z,12.23
2023-03-02T15:37:01.027Z,12.40
2023-03-02T15:42:02.865Z,13.10
2023-03-02T15:47:08.336Z,12.25
2023-03-02T15:52:11.573Z,13.27
2023-03-02T15:57:13.581Z,11.93
2023-03-02T16:02:15.488Z,12.32
2023-03-02T16:07:17.276Z,11.73
2023-03-02T16:12:23.312Z,12.50
2023-03-02T16:17:25.070Z,12.48
2023-03-02T16:22:26.816Z,11.75
2023-03-02T16:27:29.443Z,12.00
2023-03-02T16:32:33.226Z,11.98
2023-03-02T16:37:35.114Z,12.18
2023-03-02T16:42:36.937Z,11.93
2023-03-02T16:47:38.729Z,13.63
2023-03-02T16:52:41.069Z,13.43
2023-03-02T16:57:43.518Z,16.98
2023-03-02T17:02:45.628Z,18.60
2023-03-02T17:08:05.260Z,17.65
2023-03-02T17:13:07.769Z,18.90
2023-03-02T17:18:10.042Z,18.95
2023-03-02T17:23:12.976Z,17.92
2023-03-02T17:28:15.316Z,18.58
2023-03-02T17:38:54.032Z,18.05
2023-03-02T17:43:55.816Z,16.58
2023-03-02T17:48:59.362Z,17.67
2023-03-02T17:54:01.177Z,16.67
2023-03-02T17:59:05.197Z,17.88
2023-03-02T18:04:07.123Z,20.13
2023-03-02T18:09:08.993Z,18.70
2023-03-02T18:14:20.374Z,17.20
2023-03-02T18:19:22.160Z,20.60
2023-03-02T18:24:34.532Z,28.08
2023-03-02T18:29:36.278Z,21.15
2023-03-02T18:34:38.205Z,32.13
2023-03-02T18:39:40.070Z,29.30
2023-03-02T18:44:41.885Z,18.90
2023-03-02T18:49:44.686Z,16.92
2023-03-02T18:54:47.398Z,15.20
2023-03-02T18:59:49.159Z,24.25
2023-03-02T19:04:50.990Z,27.90
2023-03-02T19:09:52.787Z,18.27
2023-03-02T19:14:55.722Z,17.98
2023-03-02T19:19:58.279Z,17.27
2023-03-02T19:25:00.161Z,18.02
2023-03-02T19:30:02.107Z,16.33
2023-03-02T19:35:04.084Z,15.80
2023-03-02T19:40:06.953Z,17.38
2023-03-02T19:45:12.556Z,17.20
2023-03-02T19:50:16.384Z,16.77
2023-03-02T19:55:20.290Z,23.38
2023-03-02T20:00:23.218Z,18.30
2023-03-02T20:05:27.418Z,17.00
2023-03-02T20:10:36.959Z,17.92
2023-03-02T20:15:41.370Z,18.65
2023-03-02T20:20:45.284Z,17.70
2023-03-02T20:25:48.448Z,17.20
2023-03-02T20:30:57.192Z,18.27
2023-03-02T20:36:00.986Z,19.05
2023-03-02T20:41:04.160Z,18.98
2023-03-02T20:46:07.491Z,17.75
2023-03-02T20:51:09.380Z,17.73
2023-03-02T20:56:12.754Z,18.63
2023-03-02T21:01:16.954Z,19.80
2023-03-02T21:06:19.019Z,18.63
2023-03-02T21:11:21.640Z,18.77
2023-03-02T21:16:27.006Z,19.10
2023-03-02T21:21:40.670Z,20.05
2023-03-02T21:26:44.466Z,20.35
2023-03-02T21:31:46.276Z,19.80
2023-03-02T21:36:50.862Z,17.70
2023-03-02T21:41:53.388Z,18.75
2023-03-02T21:46:55.226Z,20.10
2023-03-02T21:51:57.056Z,21.83
2023-03-02T21:56:58.896Z,20.73
2023-03-02T22:02:01.195Z,20.55
2023-03-02T22:07:03.037Z,22.80
2023-03-02T22:12:23.821Z,21.20
2023-03-02T22:17:25.807Z,20.95
2023-03-02T22:22:31.838Z,21.00
2023-03-02T22:27:34.766Z,21.38
2023-03-02T22:32:38.543Z,20.73
2023-03-02T22:37:40.375Z,21.00
2023-03-02T22:42:42.261Z,21.67
2023-03-02T22:47:48.141Z,23.02
2023-03-02T22:52:50.894Z,23.15
2023-03-02T22:57:52.734Z,22.35
2023-03-02T23:02:55.721Z,22.55
2023-03-02T23:08:23.696Z,21.20
2023-03-02T23:13:36.395Z,22.52
2023-03-02T23:18:38.739Z,22.02
2023-03-02T23:23:40.509Z,25.70
2023-03-02T23:28:42.510Z,23.15
2023-03-02T23:33:44.542Z,25.35
2023-03-02T23:38:48.217Z,24.75
2023-03-02T23:43:50.099Z,26.50
2023-03-02T23:48:52.785Z,28.45
2023-03-02T23:53:54.892Z,29.95
2023-03-02T23:58:57.498Z,29.05
